createdAt,value
2019-05-01T00:02:26.462Z,34.43
2019-05-01T00:04:59.664Z,33.77
2019-05-01T00:07:32.895Z,34.27
2019-05-01T00:10:01.540Z,35.13
2019-05-01T00:12:30.234Z,35.63
2019-05-01T00:14:59.104Z,33.00
2019-05-01T00:17:27.960Z,36.67
2019-05-01T00:19:56.822Z,36.50
2019-05-01T00:22:25.429Z,36.40
2019-05-01T00:24:54.084Z,34.73
2019-05-01T00:27:22.595Z,37.07
2019-05-01T00:29:58.045Z,36.37
2019-05-01T00:32:29.809Z,37.77
2019-05-01T00:34:58.297Z,36.23
2019-05-01T00:37:26.916Z,38.53
2019-05-01T00:39:55.462Z,35.67
2019-05-01T00:42:24.013Z,37.90
2019-05-01T00:44:52.580Z,36.20
2019-05-01T00:47:21.140Z,40.13
2019-05-01T00:49:49.621Z,37.57
2019-05-01T00:52:18.158Z,37.23
2019-05-01T00:54:52.813Z,41.33
2019-05-01T00:57:25.740Z,38.73
2019-05-01T01:00:07.910Z,41.17
2019-05-01T01:02:38.178Z,42.17
2019-05-01T01:05:07.495Z,43.37
2019-05-01T01:07:36.103Z,37.90
2019-05-01T01:10:12.881Z,38.37
2019-05-01T01:12:42.124Z,40.67
2019-05-01T01:15:10.887Z,40.00
2019-05-01T01:17:39.363Z,39.73
2019-05-01T01:20:08.154Z,39.40
2019-05-01T01:22:36.837Z,38.70
2019-05-01T01:25:06.819Z,39.67
2019-05-01T01:27:38.260Z,40.60
2019-05-01T01:30:08.542Z,37.20
2019-05-01T01:32:44.686Z,37.50
2019-05-01T01:35:13.325Z,36.27
2019-05-01T01:37:44.519Z,34.13
2019-05-01T01:40:28.038Z,37.60
2019-05-01T01:42:59.699Z,35.17
2019-05-01T01:45:37.228Z,35.53
2019-05-01T01:48:12.762Z,36.97
2019-05-01T01:50:44.045Z,36.80
2019-05-01T01:53:17.020Z,37.57
2019-05-01T01:55:47.364Z,39.93
2019-05-01T01:58:17.566Z,38.47
2019-05-01T02:01:09.838Z,37.17
2019-05-01T02:03:40.212Z,37.43
2019-05-01T02:06:09.191Z,38.23
2019-05-01T02:08:37.844Z,39.47
2019-05-01T02:11:06.554Z,37.37
2019-05-01T02:13:36.489Z,41.00
2019-05-01T02:16:06.754Z,37.53
2019-05-01T02:18:35.723Z,36.83
2019-05-01T02:21:04.902Z,35.93
2019-05-01T02:23:33.495Z,37.63
2019-05-01T02:26:02.707Z,34.50
2019-05-01T02:28:33.571Z,36.97
2019-05-01T02:31:08.253Z,34.40
2019-05-01T02:33:40.110Z,35.50
2019-05-01T02:36:12.332Z,37.07
2019-05-01T02:38:43.285Z,37.73
2019-05-01T02:41:14.533Z,34.47
2019-05-01T02:43:45.900Z,34.67
2019-05-01T02:46:17.640Z,37.43
2019-05-01T02:48:52.773Z,33.57
2019-05-01T02:51:20.299Z,36.03
2019-05-01T02:53:50.409Z,35.30
2019-05-01T02:56:34.187Z,33.57
2019-05-01T02:59:04.850Z,34.37
2019-05-01T03:01:46.380Z,33.97
2019-05-01T03:04:07.077Z,33.33
2019-05-01T03:06:37.022Z,31.83
2019-05-01T03:09:08.147Z,33.00
2019-05-01T03:11:39.332Z,30.60
2019-05-01T03:14:13.189Z,30.10
2019-05-01T03:16:42.346Z,30.10
2019-05-01T03:19:26.016Z,29.33
2019-05-01T03:21:59.097Z,29.40
2019-05-01T03:24:28.619Z,25.93
2019-05-01T03:26:57.877Z,23.97
2019-05-01T03:29:26.499Z,24.33
2019-05-01T03:32:15.784Z,22.80
2019-05-01T03:34:27.846Z,25.70
2019-05-01T03:36:57.024Z,23.27
2019-05-01T03:39:26.749Z,22.20
2019-05-01T03:41:55.614Z,21.63
2019-05-01T03:44:24.933Z,21.97
2019-05-01T03:46:53.806Z,20.63
2019-05-01T03:49:22.942Z,20.53
2019-05-01T03:51:56.090Z,20.77
2019-05-01T03:54:24.873Z,19.43
2019-05-01T03:56:53.351Z,21.30
2019-05-01T03:59:26.752Z,21.77
2019-05-01T04:02:31.597Z,20.10
2019-05-01T04:04:45.385Z,21.30
2019-05-01T04:07:14.197Z,22.73
2019-05-01T04:09:45.673Z,19.47
2019-05-01T04:12:14.813Z,20.07
2019-05-01T04:14:43.583Z,20.30
2019-05-01T04:17:19.616Z,19.67
2019-05-01T04:19:48.386Z,21.33
2019-05-01T04:22:20.647Z,19.33
2019-05-01T04:24:49.432Z,20.90
2019-05-01T04:27:19.751Z,21.10
2019-05-01T04:29:56.279Z,20.83
2019-05-01T04:32:29.724Z,21.97
2019-05-01T04:35:00.967Z,22.07
2019-05-01T04:37:32.575Z,20.73
2019-05-01T04:40:01.245Z,20.70
2019-05-01T04:42:33.069Z,20.40
2019-05-01T04:45:05.482Z,20.80
2019-05-01T04:47:34.397Z,21.70
2019-05-01T04:50:06.420Z,21.30
2019-05-01T04:52:35.093Z,20.20
2019-05-01T04:55:04.920Z,22.03
2019-05-01T04:57:34.171Z,22.00
2019-05-01T05:00:04.879Z,21.43
2019-05-01T05:02:35.311Z,21.80
2019-05-01T05:05:05.219Z,20.03
2019-05-01T05:07:33.908Z,21.40
2019-05-01T05:10:03.883Z,22.03
2019-05-01T05:12:43.227Z,21.90
2019-05-01T05:15:15.992Z,20.93
2019-05-01T05:17:45.161Z,22.60
2019-05-01T05:20:13.793Z,21.70
2019-05-01T05:22:43.253Z,21.90
2019-05-01T05:28:05.129Z,23.30
2019-05-01T05:30:42.651Z,22.20
2019-05-01T05:33:18.176Z,21.63
2019-05-01T05:35:48.611Z,22.37
2019-05-01T05:38:23.192Z,21.93
2019-05-01T05:40:52.358Z,21.87
2019-05-01T05:43:21.365Z,23.40
2019-05-01T05:45:49.993Z,20.63
2019-05-01T05:48:20.080Z,22.67
2019-05-01T05:50:57.699Z,21.50
2019-05-01T05:53:29.963Z,19.30
2019-05-01T05:56:08.482Z,21.33
2019-05-01T05:58:50.394Z,21.93
2019-05-01T06:01:38.842Z,19.80
2019-05-01T06:04:17.725Z,20.47
2019-05-01T06:07:02.497Z,20.30
2019-05-01T06:09:35.051Z,20.67
2019-05-01T06:12:10.170Z,20.90
2019-05-01T06:15:02.328Z,21.60
2019-05-01T06:17:29.895Z,21.10
2019-05-01T06:20:00.362Z,21.43
2019-05-01T06:22:34.462Z,22.13
2019-05-01T06:25:22.350Z,21.90
2019-05-01T06:27:49.252Z,22.90
2019-05-01T06:30:17.986Z,21.93
2019-05-01T06:32:54.230Z,23.27
2019-05-01T06:35:25.505Z,22.90
2019-05-01T06:38:08.964Z,21.43
2019-05-01T06:40:39.567Z,21.00
2019-05-01T06:43:12.826Z,21.53
2019-05-01T06:45:51.628Z,22.00
2019-05-01T06:48:21.288Z,21.13
2019-05-01T06:50:57.328Z,22.33
2019-05-01T06:53:30.212Z,20.27
2019-05-01T06:55:58.816Z,20.57
2019-05-01T06:58:27.345Z,19.83
2019-05-01T07:00:56.016Z,19.27
2019-05-01T07:03:26.165Z,22.57
2019-05-01T07:05:56.228Z,23.20
2019-05-01T07:08:29.479Z,21.73
2019-05-01T07:10:56.996Z,22.83
2019-05-01T07:13:27.722Z,23.13
2019-05-01T07:15:58.393Z,24.67
2019-05-01T07:18:29.103Z,24.07
2019-05-01T07:20:57.325Z,23.97
2019-05-01T07:23:26.362Z,24.60
2019-05-01T07:25:55.104Z,23.50
2019-05-01T07:28:28.879Z,22.03
2019-05-01T07:30:57.282Z,26.50
2019-05-01T07:33:26.052Z,24.73
2019-05-01T07:35:54.887Z,26.07
2019-05-01T07:38:23.898Z,24.13
2019-05-01T07:40:52.683Z,23.93
2019-05-01T07:43:31.925Z,22.53
2019-05-01T07:46:02.408Z,19.90
2019-05-01T07:48:36.010Z,21.27
2019-05-01T07:51:06.945Z,21.80
2019-05-01T07:53:36.559Z,21.30
2019-05-01T07:56:05.846Z,22.77
2019-05-01T07:58:35.940Z,19.57
2019-05-01T08:01:06.289Z,20.13
2019-05-01T08:03:38.053Z,19.13
2019-05-01T08:06:07.046Z,18.93
2019-05-01T08:08:39.549Z,19.73
2019-05-01T08:11:10.417Z,18.53
2019-05-01T08:13:39.182Z,17.40
2019-05-01T08:16:08.818Z,17.00
2019-05-01T08:18:48.073Z,16.70
2019-05-01T08:21:35.991Z,16.80
2019-05-01T08:24:08.622Z,17.60
2019-05-01T08:26:39.568Z,14.50
2019-05-01T08:29:23.577Z,16.10
2019-05-01T08:32:11.019Z,14.50
2019-05-01T08:34:48.700Z,15.10
2019-05-01T08:37:17.888Z,14.60
2019-05-01T08:39:52.321Z,14.33
2019-05-01T08:42:23.059Z,13.90
2019-05-01T08:44:54.836Z,14.77
2019-05-01T08:47:56.735Z,14.30
2019-05-01T08:50:26.888Z,15.10
2019-05-01T08:53:06.336Z,14.20
2019-05-01T08:55:35.177Z,13.00
2019-05-01T08:58:08.799Z,16.30
2019-05-01T09:00:44.746Z,14.90
2019-05-01T09:03:18.549Z,15.80
2019-05-01T09:05:46.581Z,14.13
2019-05-01T09:08:22.323Z,14.47
2019-05-01T09:10:54.622Z,14.70
2019-05-01T09:13:32.285Z,14.43
2019-05-01T09:16:00.957Z,14.07
2019-05-01T09:18:29.665Z,15.57
2019-05-01T09:20:58.376Z,14.93
2019-05-01T09:23:27.163Z,15.27
2019-05-01T09:26:14.701Z,15.03
2019-05-01T09:29:05.423Z,15.10
2019-05-01T09:31:35.753Z,13.40
2019-05-01T09:34:09.476Z,15.07
2019-05-01T09:36:36.643Z,14.00
2019-05-01T09:39:11.001Z,14.57
2019-05-01T09:42:06.604Z,13.20
2019-05-01T09:45:00.905Z,13.33
2019-05-01T09:47:42.447Z,14.83
2019-05-01T09:53:11.711Z,14.27
2019-05-01T09:56:25.659Z,14.27
2019-05-01T09:59:12.563Z,15.80
2019-05-01T10:01:48.635Z,14.83
2019-05-01T10:04:20.365Z,16.00
2019-05-01T10:06:52.226Z,15.10
2019-05-01T10:09:27.693Z,15.23
2019-05-01T10:12:02.289Z,14.70
2019-05-01T10:14:42.549Z,17.80
2019-05-01T10:17:16.344Z,15.93
2019-05-01T10:22:50.674Z,15.60
2019-05-01T10:25:19.283Z,15.50
2019-05-01T10:28:01.628Z,17.33
2019-05-01T10:30:41.693Z,17.57
2019-05-01T10:33:12.356Z,19.13
2019-05-01T10:35:43.440Z,17.77
2019-05-01T10:38:12.394Z,18.07
2019-05-01T10:40:41.513Z,19.00
2019-05-01T10:43:10.217Z,17.80
2019-05-01T10:45:38.764Z,19.30
2019-05-01T10:48:08.233Z,18.63
2019-05-01T10:50:36.872Z,20.87
2019-05-01T10:53:05.428Z,19.40
2019-05-01T10:55:33.982Z,20.57
2019-05-01T10:58:03.407Z,20.40
2019-05-01T11:00:32.585Z,21.67
2019-05-01T11:03:01.118Z,20.53
2019-05-01T11:05:29.625Z,20.60
2019-05-01T11:07:58.089Z,21.47
2019-05-01T11:10:26.630Z,19.90
2019-05-01T11:12:55.152Z,22.37
2019-05-01T11:15:23.700Z,23.40
2019-05-01T11:17:52.242Z,22.77
2019-05-01T11:20:20.723Z,21.77
2019-05-01T11:22:49.270Z,22.57
2019-05-01T11:25:19.350Z,21.37
2019-05-01T11:27:47.895Z,22.00
2019-05-01T11:30:16.577Z,21.90
2019-05-01T11:33:05.025Z,21.60
2019-05-01T11:35:51.856Z,19.70
2019-05-01T11:38:24.554Z,20.97
2019-05-01T11:40:54.684Z,21.40
2019-05-01T11:43:23.542Z,21.93
2019-05-01T11:45:52.148Z,19.20
2019-05-01T11:48:20.644Z,18.97
2019-05-01T11:50:49.185Z,19.90
2019-05-01T11:53:17.676Z,20.00
2019-05-01T11:55:46.180Z,19.23
2019-05-01T11:58:14.712Z,19.30
2019-05-01T12:00:44.503Z,18.53
2019-05-01T12:03:12.958Z,16.47
2019-05-01T12:05:41.440Z,18.43
2019-05-01T12:08:09.912Z,18.07
2019-05-01T12:10:38.492Z,18.13
2019-05-01T12:13:07.010Z,18.10
2019-05-01T12:15:35.536Z,16.77
2019-05-01T12:18:04.146Z,18.73
2019-05-01T12:20:32.722Z,15.77
2019-05-01T12:23:02.280Z,16.77
2019-05-01T12:25:30.779Z,16.70
2019-05-01T12:27:59.303Z,17.10
2019-05-01T12:30:27.876Z,17.73
2019-05-01T12:32:56.494Z,17.10
2019-05-01T12:35:25.105Z,16.30
2019-05-01T12:37:55.586Z,17.37
2019-05-01T12:40:27.533Z,15.70
2019-05-01T12:42:56.028Z,17.63
2019-05-01T12:45:24.496Z,18.30
2019-05-01T12:47:54.718Z,17.70
2019-05-01T12:50:23.350Z,16.73
2019-05-01T12:53:00.007Z,16.23
2019-05-01T12:55:30.177Z,16.77
2019-05-01T12:57:58.646Z,16.30
2019-05-01T13:00:49.234Z,17.03
2019-05-01T13:03:17.766Z,16.50
2019-05-01T13:05:46.929Z,16.20
2019-05-01T13:08:15.433Z,16.40
2019-05-01T13:10:44.037Z,16.90
2019-05-01T13:13:12.531Z,17.60
2019-05-01T13:15:41.125Z,16.40
2019-05-01T13:18:09.594Z,16.57
2019-05-01T13:20:38.142Z,17.43
2019-05-01T13:23:06.701Z,17.40
2019-05-01T13:25:35.253Z,17.27
2019-05-01T13:28:08.427Z,18.07
2019-05-01T13:30:54.875Z,18.70
2019-05-01T13:33:24.005Z,18.33
2019-05-01T13:35:54.023Z,16.97
2019-05-01T13:38:22.667Z,17.13
2019-05-01T13:40:51.146Z,16.50
2019-05-01T13:43:21.178Z,16.00
2019-05-01T13:45:50.603Z,17.17
2019-05-01T13:48:19.083Z,18.43
2019-05-01T13:50:47.568Z,18.37
2019-05-01T13:53:16.194Z,19.50
2019-05-01T13:55:44.823Z,18.03
2019-05-01T13:58:13.353Z,16.07
2019-05-01T14:00:42.178Z,17.90
2019-05-01T14:03:10.815Z,16.53
2019-05-01T14:05:40.557Z,16.60
2019-05-01T14:08:09.179Z,17.70
2019-05-01T14:10:37.651Z,18.40
2019-05-01T14:13:06.141Z,17.03
2019-05-01T14:15:34.604Z,16.53
2019-05-01T14:18:03.151Z,16.47
2019-05-01T14:20:33.272Z,16.43
2019-05-01T14:23:19.467Z,16.37
2019-05-01T14:26:04.011Z,16.80
2019-05-01T14:28:34.978Z,18.53
2019-05-01T14:31:03.725Z,16.60
2019-05-01T14:33:32.295Z,18.87
2019-05-01T14:36:00.847Z,16.90
2019-05-01T14:38:29.353Z,17.20
2019-05-01T14:40:58.229Z,19.90
2019-05-01T14:43:26.848Z,18.80
2019-05-01T14:45:56.036Z,16.87
2019-05-01T14:48:24.747Z,19.43
2019-05-01T14:50:53.231Z,18.13
2019-05-01T14:53:21.713Z,18.80
2019-05-01T14:55:50.280Z,19.27
2019-05-01T14:58:18.834Z,18.47
2019-05-01T15:00:47.311Z,19.00
2019-05-01T15:03:15.784Z,18.50
2019-05-01T15:05:46.739Z,17.57
2019-05-01T15:08:16.739Z,17.43
2019-05-01T15:10:45.211Z,16.80
2019-05-01T15:13:34.481Z,19.30
2019-05-01T15:16:20.789Z,18.10
2019-05-01T15:18:59.746Z,18.33
2019-05-01T15:21:28.308Z,18.80
2019-05-01T15:23:56.767Z,18.70
2019-05-01T15:26:25.254Z,19.00
2019-05-01T15:28:53.735Z,18.23
2019-05-01T15:31:23.964Z,17.70
2019-05-01T15:33:52.576Z,17.70
2019-05-01T15:36:21.071Z,18.60
2019-05-01T15:38:49.550Z,17.77
2019-05-01T15:41:22.199Z,17.20
2019-05-01T15:44:04.052Z,18.63
2019-05-01T15:46:34.027Z,17.90
2019-05-01T15:49:02.503Z,19.00
2019-05-01T15:51:31.317Z,17.77
2019-05-01T15:53:59.789Z,18.90
2019-05-01T15:56:28.301Z,17.53
2019-05-01T15:58:56.861Z,17.80
2019-05-01T16:01:25.373Z,18.30
2019-05-01T16:03:53.985Z,20.83
2019-05-01T16:06:22.458Z,18.37
2019-05-01T16:08:54.857Z,18.07
2019-05-01T16:11:27.754Z,20.10
2019-05-01T16:13:56.264Z,16.10
2019-05-01T16:16:24.753Z,18.83
2019-05-01T16:18:53.605Z,18.60
2019-05-01T16:21:23.114Z,18.37
2019-05-01T16:23:51.962Z,17.90
2019-05-01T16:26:21.536Z,18.73
2019-05-01T16:28:50.123Z,18.43
2019-05-01T16:31:18.636Z,17.37
2019-05-01T16:33:47.121Z,19.00
2019-05-01T16:36:15.663Z,18.87
2019-05-01T16:39:01.176Z,17.77
2019-05-01T16:41:31.524Z,18.40
2019-05-01T16:43:59.989Z,17.07
2019-05-01T16:46:28.567Z,18.00
2019-05-01T16:48:57.149Z,18.60
2019-05-01T16:51:25.710Z,19.30
2019-05-01T16:53:54.166Z,17.73
2019-05-01T16:56:22.790Z,18.20
2019-05-01T16:58:51.255Z,18.60
2019-05-01T17:01:24.097Z,18.97
2019-05-01T17:03:55.795Z,19.30
2019-05-01T17:06:33.270Z,18.10
2019-05-01T17:09:12.676Z,19.33
2019-05-01T17:11:41.469Z,19.30
2019-05-01T17:14:11.278Z,20.73
2019-05-01T17:16:39.920Z,19.63
2019-05-01T17:19:08.477Z,19.50
2019-05-01T17:21:37.002Z,19.40
2019-05-01T17:24:05.562Z,18.07
2019-05-01T17:26:34.013Z,19.63
2019-05-01T17:29:02.510Z,18.03
2019-05-01T17:31:31.953Z,18.60
2019-05-01T17:34:00.644Z,19.13
2019-05-01T17:36:29.192Z,20.13
2019-05-01T17:38:57.750Z,19.30
2019-05-01T17:41:27.106Z,19.70
2019-05-01T17:43:56.833Z,20.03
2019-05-01T17:46:25.460Z,19.67
2019-05-01T17:48:53.923Z,20.37
2019-05-01T17:51:22.455Z,19.03
2019-05-01T17:53:50.956Z,20.80
2019-05-01T17:56:27.505Z,18.20
2019-05-01T17:58:49.646Z,19.60
2019-05-01T18:01:22.698Z,19.13
2019-05-01T18:03:58.874Z,19.50
2019-05-01T18:06:28.983Z,19.23
2019-05-01T18:09:03.146Z,19.20
2019-05-01T18:11:27.726Z,19.97
2019-05-01T18:13:56.542Z,20.23
2019-05-01T18:16:25.062Z,20.53
2019-05-01T18:18:53.536Z,19.40
2019-05-01T18:21:22.865Z,20.97
2019-05-01T18:23:53.190Z,18.87
2019-05-01T18:26:43.479Z,20.67
2019-05-01T18:29:27.650Z,21.37
2019-05-01T18:32:03.000Z,19.67
2019-05-01T18:34:33.690Z,18.60
2019-05-01T18:37:10.747Z,18.30
2019-05-01T18:39:43.750Z,20.07
2019-05-01T18:42:16.975Z,19.10
2019-05-01T18:44:47.410Z,18.57
2019-05-01T18:47:15.744Z,18.70
2019-05-01T18:49:44.208Z,20.13
2019-05-01T18:52:12.857Z,19.80
2019-05-01T18:54:41.327Z,19.03
2019-05-01T18:57:09.967Z,20.57
2019-05-01T18:59:39.171Z,19.90
2019-05-01T19:02:07.713Z,19.83
2019-05-01T19:04:36.342Z,18.70
2019-05-01T19:07:05.354Z,17.40
2019-05-01T19:09:36.674Z,16.70
2019-05-01T19:12:07.456Z,15.10
2019-05-01T19:14:36.055Z,17.13
2019-05-01T19:17:04.624Z,16.87
2019-05-01T19:19:33.145Z,16.83
2019-05-01T19:22:01.749Z,15.83
2019-05-01T19:24:32.412Z,15.53
2019-05-01T19:27:01.356Z,16.80
2019-05-01T19:29:32.066Z,15.67
2019-05-01T19:32:00.166Z,15.33
2019-05-01T19:34:28.721Z,16.10
2019-05-01T19:36:57.202Z,16.20
2019-05-01T19:39:25.803Z,16.03
2019-05-01T19:41:56.786Z,17.87
2019-05-01T19:44:26.919Z,16.27
2019-05-01T19:46:55.401Z,16.30
2019-05-01T19:49:24.595Z,17.00
2019-05-01T19:51:55.551Z,16.20
2019-05-01T19:54:30.053Z,16.70
2019-05-01T19:56:58.885Z,17.90
2019-05-01T19:59:27.391Z,15.30
2019-05-01T20:01:56.057Z,16.40
2019-05-01T20:04:24.693Z,14.93
2019-05-01T20:06:53.288Z,16.37
2019-05-01T20:09:22.669Z,17.03
2019-05-01T20:11:51.193Z,16.60
2019-05-01T20:14:19.753Z,16.30
2019-05-01T20:16:51.011Z,17.00
2019-05-01T20:19:19.659Z,16.60
2019-05-01T20:21:48.195Z,15.97
2019-05-01T20:24:19.161Z,16.07
2019-05-01T20:26:47.028Z,16.50
2019-05-01T20:29:17.982Z,16.93
2019-05-01T20:31:50.609Z,15.20
2019-05-01T20:34:18.474Z,16.03
2019-05-01T20:36:47.097Z,17.10
2019-05-01T20:39:15.565Z,15.77
2019-05-01T20:41:44.057Z,14.33
2019-05-01T20:44:14.027Z,16.07
2019-05-01T20:46:42.846Z,16.33
2019-05-01T20:49:11.401Z,14.10
2019-05-01T20:51:39.909Z,16.03
2019-05-01T20:54:08.484Z,15.03
2019-05-01T20:56:38.655Z,16.00
2019-05-01T20:59:07.143Z,15.70
2019-05-01T21:01:35.722Z,16.07
2019-05-01T21:04:22.755Z,15.80
2019-05-01T21:07:15.352Z,16.17
2019-05-01T21:09:47.823Z,16.30
2019-05-01T21:12:15.363Z,14.33
2019-05-01T21:14:45.389Z,16.70
2019-05-01T21:17:15.096Z,15.47
2019-05-01T21:19:44.129Z,15.70
2019-05-01T21:22:14.263Z,15.13
2019-05-01T21:24:44.345Z,15.53
2019-05-01T21:27:13.385Z,16.03
2019-05-01T21:29:44.355Z,15.63
2019-05-01T21:32:18.343Z,16.60
2019-05-01T21:34:44.034Z,16.17
2019-05-01T21:37:12.562Z,14.77
2019-05-01T21:39:43.613Z,15.70
2019-05-01T21:42:13.577Z,15.30
2019-05-01T21:44:43.507Z,15.30
2019-05-01T21:47:13.748Z,16.40
2019-05-01T21:49:43.379Z,16.30
2019-05-01T21:52:13.536Z,15.57
2019-05-01T21:54:42.182Z,15.83
2019-05-01T21:57:12.040Z,15.67
2019-05-01T21:59:44.731Z,15.27
2019-05-01T22:02:12.017Z,14.97
2019-05-01T22:04:40.615Z,17.93
2019-05-01T22:07:09.342Z,16.00
2019-05-01T22:09:39.096Z,14.03
2019-05-01T22:12:08.248Z,14.67
2019-05-01T22:14:45.224Z,14.43
2019-05-01T22:17:15.420Z,15.33
2019-05-01T22:19:44.129Z,15.17
2019-05-01T22:22:14.305Z,15.77
2019-05-01T22:25:00.136Z,17.20
2019-05-01T22:27:35.434Z,15.47
2019-05-01T22:30:19.303Z,15.73
2019-05-01T22:32:49.487Z,15.27
2019-05-01T22:35:22.415Z,15.37
2019-05-01T22:37:50.896Z,15.10
2019-05-01T22:40:21.146Z,16.87
2019-05-01T22:42:51.304Z,15.60
2019-05-01T22:45:22.576Z,15.10
2019-05-01T22:47:52.147Z,15.73
2019-05-01T22:50:22.543Z,16.10
2019-05-01T22:52:51.146Z,15.23
2019-05-01T22:55:25.376Z,16.80
2019-05-01T22:57:50.852Z,16.27
2019-05-01T23:00:24.173Z,15.53
2019-05-01T23:02:52.855Z,14.30
2019-05-01T23:05:23.053Z,17.50
2019-05-01T23:07:51.528Z,16.57
2019-05-01T23:10:20.166Z,16.10
2019-05-01T23:12:48.629Z,16.93
2019-05-01T23:15:27.655Z,15.87
2019-05-01T23:17:56.132Z,16.50
2019-05-01T23:20:24.800Z,15.93
2019-05-01T23:22:53.459Z,17.27
2019-05-01T23:25:21.956Z,15.90
2019-05-01T23:27:50.504Z,15.97
2019-05-01T23:30:21.100Z,17.10
2019-05-01T23:32:49.697Z,17.63
2019-05-01T23:35:18.212Z,18.10
2019-05-01T23:37:46.676Z,16.13
2019-05-01T23:40:16.755Z,17.03
2019-05-01T23:42:52.465Z,15.30
2019-05-01T23:45:15.942Z,17.07
2019-05-01T23:47:44.480Z,17.40
2019-05-01T23:50:13.397Z,18.47
2019-05-01T23:52:41.901Z,16.37
2019-05-01T23:55:10.678Z,16.90
2019-05-01T23:57:40.542Z,17.33
